createdAt,value
2019-02-17T00:00:21.131Z,40.55
2019-02-17T00:02:54.666Z,38.67
2019-02-17T00:05:51.623Z,38.33
2019-02-17T00:08:28.775Z,30.30
2019-02-17T00:11:06.972Z,36.83
2019-02-17T00:13:41.905Z,40.63
2019-02-17T00:16:27.838Z,39.45
2019-02-17T00:18:55.720Z,36.42
2019-02-17T00:24:46.314Z,40.60
2019-02-17T00:27:22.245Z,38.45
2019-02-17T00:29:56.541Z,39.25
2019-02-17T00:32:35.508Z,38.23
2019-02-17T00:35:07.726Z,38.45
2019-02-17T00:37:41.305Z,37.45
2019-02-17T00:40:17.236Z,38.70
2019-02-17T00:43:22.478Z,40.33
2019-02-17T01:10:48.275Z,37.53
2019-02-17T01:13:19.666Z,36.80
2019-02-17T01:15:53.148Z,37.65
2019-02-17T01:18:26.524Z,40.23
2019-02-17T01:21:02.350Z,38.55
2019-02-17T01:23:36.555Z,37.50
2019-02-17T01:26:06.260Z,39.23
2019-02-17T01:28:39.134Z,39.45
2019-02-17T01:31:14.232Z,38.98
2019-02-17T01:33:44.954Z,39.95
2019-02-17T01:49:05.974Z,39.92
2019-02-17T02:51:50.204Z,42.78
2019-02-17T02:54:20.777Z,43.87
2019-02-17T02:57:14.201Z,41.70
2019-02-17T02:59:54.453Z,45.83
2019-02-17T03:02:25.191Z,43.23
2019-02-17T03:05:04.526Z,42.43
2019-02-17T03:07:36.626Z,41.92
2019-02-17T03:10:11.170Z,41.48
2019-02-17T03:12:59.825Z,41.88
2019-02-17T03:15:53.328Z,41.83
2019-02-17T03:18:31.590Z,36.88
2019-02-17T03:21:06.871Z,40.33
2019-02-17T03:26:38.848Z,42.90
2019-02-17T03:32:03.723Z,39.95
2019-02-17T03:34:41.233Z,40.38
2019-02-17T03:40:08.659Z,41.77
2019-02-17T03:42:47.878Z,38.33
2019-02-17T03:45:38.255Z,39.13
2019-02-17T03:48:35.642Z,39.45
2019-02-17T03:51:16.212Z,38.28
2019-02-17T03:53:54.926Z,40.23
2019-02-17T03:56:26.274Z,37.88
2019-02-17T03:59:02.579Z,38.42
2019-02-17T04:01:49.872Z,38.17
2019-02-17T04:04:24.288Z,36.58
2019-02-17T04:07:18.414Z,38.20
2019-02-17T04:13:05.854Z,36.90
2019-02-17T04:15:46.567Z,37.60
2019-02-17T04:18:26.422Z,38.75
2019-02-17T04:21:03.838Z,39.85
2019-02-17T04:23:38.978Z,39.73
2019-02-17T04:26:16.064Z,38.45
2019-02-17T04:28:57.093Z,35.35
2019-02-17T04:31:34.998Z,40.28
2019-02-17T04:37:13.217Z,38.48
2019-02-17T04:39:46.395Z,38.42
2019-02-17T04:42:29.339Z,38.10
2019-02-17T04:45:01.122Z,36.35
2019-02-17T04:47:45.405Z,39.18
2019-02-17T04:50:23.044Z,39.67
2019-02-17T04:53:02.867Z,37.42
2019-02-17T04:55:41.307Z,35.38
2019-02-17T05:01:21.622Z,36.68
2019-02-17T05:03:52.736Z,36.73
2019-02-17T05:39:54.211Z,37.40
2019-02-17T07:19:31.456Z,32.55
2019-02-17T08:03:09.087Z,31.30
2019-02-17T08:06:27.984Z,29.87
2019-02-17T08:09:16.626Z,30.20
2019-02-17T08:11:37.175Z,30.12
2019-02-17T08:14:08.328Z,30.17
2019-02-17T08:16:53.442Z,28.45
2019-02-17T08:19:21.064Z,31.35
2019-02-17T08:22:06.458Z,29.45
2019-02-17T08:24:42.438Z,29.57
2019-02-17T08:30:52.091Z,29.55
2019-02-17T08:36:44.225Z,29.42
2019-02-17T08:39:16.007Z,28.60
2019-02-17T08:41:58.884Z,29.27
2019-02-17T08:44:36.048Z,28.92
2019-02-17T08:47:08.474Z,27.65
2019-02-17T08:49:38.194Z,28.70
2019-02-17T08:52:16.137Z,27.87
2019-02-17T08:54:53.154Z,28.17
2019-02-17T08:57:29.424Z,27.93
2019-02-17T09:00:22.546Z,28.57
2019-02-17T09:07:55.469Z,26.70
2019-02-17T09:10:24.802Z,26.70
2019-02-17T10:13:18.392Z,25.70
2019-02-17T10:41:11.345Z,24.98
2019-02-17T11:08:03.153Z,24.30
2019-02-17T11:10:53.361Z,25.32
2019-02-17T11:13:25.685Z,24.40
2019-02-17T11:15:55.929Z,25.02
2019-02-17T11:18:25.618Z,23.73
2019-02-17T11:20:55.016Z,23.75
2019-02-17T11:23:24.610Z,23.50
2019-02-17T11:25:54.902Z,24.23
2019-02-17T11:28:24.292Z,25.10
2019-02-17T11:30:53.792Z,24.82
2019-02-17T11:33:23.244Z,23.27
2019-02-17T11:38:43.670Z,24.37
2019-02-17T11:41:45.164Z,23.15
2019-02-17T12:56:55.241Z,20.43
2019-02-17T13:05:23.174Z,20.08
2019-02-17T13:07:52.842Z,19.12
2019-02-17T13:10:23.445Z,20.55
2019-02-17T13:12:54.350Z,18.85
2019-02-17T13:15:25.320Z,18.10
2019-02-17T13:17:55.672Z,19.42
2019-02-17T13:20:26.139Z,20.02
2019-02-17T13:22:56.931Z,19.27
2019-02-17T13:25:28.093Z,20.17
2019-02-17T15:21:18.127Z,13.35
2019-02-17T15:24:44.653Z,13.48
2019-02-17T15:26:42.063Z,18.42
2019-02-17T15:38:41.711Z,13.40
2019-02-17T15:41:21.666Z,12.80
2019-02-17T16:50:26.894Z,12.78
2019-02-17T19:02:25.521Z,12.28
2019-02-17T19:04:57.662Z,12.13
2019-02-17T19:07:27.141Z,13.55
2019-02-17T19:09:56.606Z,11.85
2019-02-17T19:12:26.014Z,11.55
2019-02-17T19:14:58.409Z,11.05
2019-02-17T19:17:33.527Z,11.35
2019-02-17T19:20:06.841Z,10.78
2019-02-17T19:22:50.698Z,10.23
2019-02-17T19:25:30.534Z,10.35
2019-02-17T19:28:03.674Z,10.18
2019-02-17T19:30:33.459Z,9.58
2019-02-17T19:33:03.151Z,10.18
2019-02-17T19:35:41.436Z,10.00
2019-02-17T19:38:04.779Z,9.80
2019-02-17T19:40:34.235Z,9.65
2019-02-17T19:43:03.688Z,9.70
2019-02-17T19:45:33.278Z,10.82
2019-02-17T19:48:02.779Z,10.35
2019-02-17T19:50:32.365Z,10.20
2019-02-17T19:53:01.875Z,10.20
2019-02-17T19:55:32.167Z,10.78
2019-02-17T19:58:01.656Z,10.68
2019-02-17T20:00:33.888Z,10.65
2019-02-17T20:03:21.232Z,10.70
2019-02-17T20:06:01.437Z,10.45
2019-02-17T20:08:30.842Z,10.28
2019-02-17T20:11:00.582Z,10.72
2019-02-17T20:13:32.458Z,10.43
2019-02-17T20:16:01.992Z,12.10
2019-02-17T20:18:44.066Z,12.23
2019-02-17T20:21:15.910Z,11.33
2019-02-17T20:23:47.491Z,10.95
2019-02-17T20:26:22.233Z,10.55
2019-02-17T20:28:57.084Z,9.83
2019-02-17T20:31:23.850Z,11.68
2019-02-17T20:33:53.371Z,10.65
2019-02-17T20:36:23.031Z,10.65
2019-02-17T20:38:52.723Z,10.95
2019-02-17T20:41:22.535Z,11.22
2019-02-17T20:43:51.989Z,11.80
2019-02-17T20:46:21.347Z,11.68
2019-02-17T20:48:52.511Z,11.43
2019-02-17T23:05:10.253Z,11.40
